Painted Post, New York
Current Conditions -  °F | °C
As of 11:53 AM on Thursday 18 Dec 2014 (Local Time) from KELM Reporting Station
Overcast Overcast  
Wind Chill: 26°   Ceiling: 2000
Heat Index: 34°   Visibility: 10mi
Dew Point: 27°   Wind: 10mph
Humidity: 75%   Direction: 290°WNW
Pressure: 30.01"   Gusts: NA
Location:  42.16°N, 77.09°W
Report Text: KELM 181653Z 29009KT 260V340 10SM OVC020 01/M03 A3001 RMK AO2 SLP171 T00111028
Loading
Personal Weather Stations






























Interactive Weather Map New forecast layout! Learn more

10-Day Weather Forecast

Advertisements
Track Severe Weather on mobile